Berta — V2BQ6 — position and weather

sailwx.info

Track history (hours):
 
Tides and Currents Weather Stations Pressure Air Temp Water Temp Dewpoint Dewpoint Depression Visibility Wind Speed Wind Dir Waves Ship Positions

Berta

Last reported at 2015-Aug-05 05:33 UTC. Time now 2015-Aug-05 06:30 UTC.
Position N 53°32' E 009°55'.

Length 107 m; draft 7.2 m.

Type: Cargo ship. MMSI: 304586000.

Date/timePositionNaut miles runAvg speedWind from/ knotsBaromVisibWave heightAir tempDewpointWater temp
2015-Aug-05 05:33N 53°32' E 009°55'0 0.2
2015-Aug-05 04:33N 53°32' E 009°55'2 2.2
2015-Aug-05 03:33N 53°30' E 009°56'0 0.0
2015-Aug-05 02:33N 53°30' E 009°56'0 0.0
2015-Aug-05 01:33N 53°30' E 009°56'0 0.0
2015-Aug-05 00:33N 53°30' E 009°56'0 0.0
2015-Aug-04 23:33N 53°30' E 009°56'0 0.0
2015-Aug-04 22:33N 53°30' E 009°56'0 0.0
2015-Aug-04 21:33N 53°30' E 009°56'0 0.0
2015-Aug-04 20:33N 53°30' E 009°56'5 5.1
2015-Aug-04 19:33N 53°33' E 009°49'10 9.9
2015-Aug-04 18:33N 53°37' E 009°34'1211.9
2015-Aug-04 17:33N 53°47' E 009°23'1212.2
2015-Aug-04 16:34N 53°52' E 009°05'1212.4
2015-Aug-04 15:34N 53°52' E 008°44'1312.5
2015-Aug-04 14:33N 53°59' E 008°26'1313.1
2015-Aug-04 13:33N 53°60' E 008°04'1413.6
2015-Aug-04 12:33N 54°07' E 007°44'1313.1
2015-Aug-04 11:33N 54°16' E 007°28'1313.2
2015-Aug-04 10:33N 54°28' E 007°18'1313.1
2015-Aug-04 09:33N 54°40' E 007°08'1313.0
2015-Aug-04 08:33N 54°51' E 006°59'1312.3
2015-Aug-04 07:33N 55°02' E 006°49'1211.9
2015-Aug-04 06:33N 55°14' E 006°42'1212.0
2015-Aug-04 05:33N 55°25' E 006°38'18311.9
2015-Aug-03 14:05N 58°22' E 005°08'810.7
2015-Aug-03 13:20N 58°30' E 005°03'1010.4
2015-Aug-03 12:23N 58°40' E 005°05'911.2
2015-Aug-03 11:33N 58°48' E 005°10'1212.1
2015-Aug-03 10:34N 58°60' E 005°18'1312.6
2015-Aug-03 09:33N 59°12' E 005°20'8 7.6
2015-Aug-03 08:30N 59°20' E 005°18'0 0.0
2015-Aug-03 07:32N 59°20' E 005°18'7 7.3
2015-Aug-03 06:33N 59°13' E 005°21'8 8.1
2015-Aug-03 05:33N 59°08' E 005°09'1211.9
2015-Aug-03 04:33N 59°19' E 004°59'1312.9
2015-Aug-03 03:33N 59°32' E 004°57'  
2015-Jul-31 19:08N 63°10' E 007°46'2 0.4
2015-Jul-31 12:30N 63°09' E 007°42'21011.0
2015-Jul-30 17:29N 59°58' E 004°42'1510.9
2015-Jul-30 16:07N 59°43' E 004°48'610.2
2015-Jul-30 15:33N 59°37' E 004°51'1010.1
2015-Jul-30 14:32N 59°27' E 004°54'1010.1
2015-Jul-30 13:33N 59°18' E 004°58'1010.3
2015-Jul-30 12:33N 59°09' E 005°08'1211.7
2015-Jul-30 11:33N 59°06' E 005°30'1110.9
2015-Jul-30 10:33N 58°56' E 005°35'1 0.6
2015-Jul-30 09:33N 58°55' E 005°35'0 0.0
2015-Jul-30 08:33N 58°55' E 005°35'5 5.2
2015-Jul-30 07:33N 58°51' E 005°30'1010.0
2015-Jul-30 06:33N 58°41' E 005°29'1212.4
2015-Jul-30 05:33N 58°30' E 005°39'1110.7
2015-Jul-30 04:29N 58°26' E 005°59'1 0.9
2015-Jul-30 03:33N 58°26' E 005°59'0 0.0
2015-Jul-30 02:33N 58°26' E 005°59'0 0.0
2015-Jul-30 01:33N 58°26' E 005°59'0 0.0
2015-Jul-30 00:33N 58°26' E 005°59'0 0.0
2015-Jul-29 23:33N 58°26' E 005°59'1 0.8
2015-Jul-29 22:33N 58°26' E 005°59'1313.0
2015-Jul-29 21:33N 58°13' E 006°03'16313.1
2015-Jul-29 09:09N 55°31' E 006°39'813.0
2015-Jul-29 08:33N 55°23' E 006°41'1312.7
2015-Jul-29 07:33N 55°11' E 006°44'1212.1
2015-Jul-29 06:33N 54°60' E 006°51'1212.2
2015-Jul-29 05:33N 54°49' E 007°01'1212.1
2015-Jul-29 04:33N 54°38' E 007°11'1212.4
2015-Jul-29 03:34N 54°27' E 007°21'1312.7
2015-Jul-29 02:33N 54°17' E 007°33'1313.2
2015-Jul-29 01:33N 54°07' E 007°49'1313.2
2015-Jul-29 00:33N 54°01' E 008°09'1413.9
2015-Jul-28 23:33N 53°58' E 008°32'1212.3
2015-Jul-28 22:33N 53°51' E 008°48'1111.1
2015-Jul-28 21:34N 53°53' E 009°07'1010.2
2015-Jul-28 20:33N 53°49' E 009°22'1110.7
2015-Jul-28 19:34N 53°39' E 009°31'1010.4
2015-Jul-28 18:33N 53°34' E 009°46'6 5.6
2015-Jul-28 17:33N 53°32' E 009°55'0 0.0
2015-Jul-28 16:33N 53°32' E 009°55'0 0.0
2015-Jul-28 15:33N 53°32' E 009°55'0 0.0
2015-Jul-28 14:33N 53°32' E 009°55'0 0.0
2015-Jul-28 13:33N 53°32' E 009°55'0 0.0
2015-Jul-28 12:33N 53°32' E 009°55'0 0.0
2015-Jul-28 11:33N 53°32' E 009°55'0 0.0
2015-Jul-28 10:33N 53°32' E 009°55'0 0.0
2015-Jul-28 09:33N 53°32' E 009°55'0 0.0
2015-Jul-28 08:33N 53°32' E 009°55'0 0.0
2015-Jul-28 07:33N 53°32' E 009°55'0 0.0
2015-Jul-28 06:33N 53°32' E 009°55'2 1.9
2015-Jul-28 05:33N 53°31' E 009°56'0 0.0
2015-Jul-28 04:33N 53°31' E 009°56'0 0.0
2015-Jul-28 03:33N 53°31' E 009°56'0 0.0
2015-Jul-28 02:33N 53°31' E 009°56'0 0.0
2015-Jul-28 01:33N 53°31' E 009°56'0 0.0
2015-Jul-28 00:33N 53°31' E 009°56'0 0.0
2015-Jul-27 23:33N 53°31' E 009°56'0 0.0
2015-Jul-27 22:33N 53°31' E 009°56'0 0.0
2015-Jul-27 21:33N 53°31' E 009°56'1 0.9
2015-Jul-27 20:33N 53°32' E 009°56'7 6.8
2015-Jul-27 19:33N 53°34' E 009°45'1111.2
2015-Jul-27 18:33N 53°40' E 009°30'1211.8
2015-Jul-27 17:33N 53°50' E 009°20'1211.7
2015-Jul-27 16:33N 53°51' E 009°00'1010.5
2015-Jul-27 15:33N 53°53' E 008°43'1110.5
2015-Jul-27 14:33N 53°59' E 008°28'1212.1
2015-Jul-27 13:33N 53°59' E 008°07'1212.0
2015-Jul-27 12:33N 54°05' E 007°49'1211.8
2015-Jul-27 11:33N 54°11' E 007°32'1211.4
2015-Jul-27 10:33N 54°21' E 007°23'1111.2
2015-Jul-27 09:33N 54°31' E 007°15'1111.2
2015-Jul-27 08:33N 54°41' E 007°06'1111.3
2015-Jul-27 07:33N 54°51' E 006°58'1111.2
2015-Jul-27 06:33N 55°01' E 006°49'1111.1
2015-Jul-27 05:33N 55°12' E 006°43'1111.4
2015-Jul-27 04:33N 55°23' E 006°38'20011.0
2015-Jul-26 10:28N 58°39' E 005°26'1112.4
2015-Jul-26 09:33N 58°50' E 005°27'1313.0
2015-Jul-26 08:33N 59°03' E 005°32'1312.6
2015-Jul-26 07:33N 59°14' E 005°41'1312.7
2015-Jul-26 06:33N 59°22' E 006°01'  
Track history (hours):
 
Tides and Currents Weather Stations Pressure Air Temp Water Temp Dewpoint Dewpoint Depression Visibility Wind Speed Wind Dir Waves Ship Positions

Berta

Last reported at 2015-Aug-05 05:33 UTC. Time now 2015-Aug-05 06:30 UTC.
Position N 53°32' E 009°55'.

Length 107 m; draft 7.2 m.

Type: Cargo ship. MMSI: 304586000.

Date/timePositionNaut miles runAvg speedWind from/ knotsBaromVisibWave heightAir tempDewpointWater temp
2015-Aug-05 05:33N 53°32' E 009°55'0 0.2
2015-Aug-05 04:33N 53°32' E 009°55'2 2.2
2015-Aug-05 03:33N 53°30' E 009°56'0 0.0
2015-Aug-05 02:33N 53°30' E 009°56'0 0.0
2015-Aug-05 01:33N 53°30' E 009°56'0 0.0
2015-Aug-05 00:33N 53°30' E 009°56'0 0.0
2015-Aug-04 23:33N 53°30' E 009°56'0 0.0
2015-Aug-04 22:33N 53°30' E 009°56'0 0.0
2015-Aug-04 21:33N 53°30' E 009°56'0 0.0
2015-Aug-04 20:33N 53°30' E 009°56'5 5.1
2015-Aug-04 19:33N 53°33' E 009°49'10 9.9
2015-Aug-04 18:33N 53°37' E 009°34'1211.9
2015-Aug-04 17:33N 53°47' E 009°23'1212.2
2015-Aug-04 16:34N 53°52' E 009°05'1212.4
2015-Aug-04 15:34N 53°52' E 008°44'1312.5
2015-Aug-04 14:33N 53°59' E 008°26'1313.1
2015-Aug-04 13:33N 53°60' E 008°04'1413.6
2015-Aug-04 12:33N 54°07' E 007°44'1313.1
2015-Aug-04 11:33N 54°16' E 007°28'1313.2
2015-Aug-04 10:33N 54°28' E 007°18'1313.1
2015-Aug-04 09:33N 54°40' E 007°08'1313.0
2015-Aug-04 08:33N 54°51' E 006°59'1312.3
2015-Aug-04 07:33N 55°02' E 006°49'1211.9
2015-Aug-04 06:33N 55°14' E 006°42'1212.0
2015-Aug-04 05:33N 55°25' E 006°38'18311.9
2015-Aug-03 14:05N 58°22' E 005°08'810.7
2015-Aug-03 13:20N 58°30' E 005°03'1010.4
2015-Aug-03 12:23N 58°40' E 005°05'911.2
2015-Aug-03 11:33N 58°48' E 005°10'1212.1
2015-Aug-03 10:34N 58°60' E 005°18'1312.6
2015-Aug-03 09:33N 59°12' E 005°20'8 7.6
2015-Aug-03 08:30N 59°20' E 005°18'0 0.0
2015-Aug-03 07:32N 59°20' E 005°18'7 7.3
2015-Aug-03 06:33N 59°13' E 005°21'8 8.1
2015-Aug-03 05:33N 59°08' E 005°09'1211.9
2015-Aug-03 04:33N 59°19' E 004°59'1312.9
2015-Aug-03 03:33N 59°32' E 004°57'  
2015-Jul-31 19:08N 63°10' E 007°46'2 0.4
2015-Jul-31 12:30N 63°09' E 007°42'21011.0
2015-Jul-30 17:29N 59°58' E 004°42'1510.9
2015-Jul-30 16:07N 59°43' E 004°48'610.2
2015-Jul-30 15:33N 59°37' E 004°51'1010.1
2015-Jul-30 14:32N 59°27' E 004°54'1010.1
2015-Jul-30 13:33N 59°18' E 004°58'1010.3
2015-Jul-30 12:33N 59°09' E 005°08'1211.7
2015-Jul-30 11:33N 59°06' E 005°30'1110.9
2015-Jul-30 10:33N 58°56' E 005°35'1 0.6
2015-Jul-30 09:33N 58°55' E 005°35'0 0.0
2015-Jul-30 08:33N 58°55' E 005°35'5 5.2
2015-Jul-30 07:33N 58°51' E 005°30'1010.0
2015-Jul-30 06:33N 58°41' E 005°29'1212.4
2015-Jul-30 05:33N 58°30' E 005°39'1110.7
2015-Jul-30 04:29N 58°26' E 005°59'1 0.9
2015-Jul-30 03:33N 58°26' E 005°59'0 0.0
2015-Jul-30 02:33N 58°26' E 005°59'0 0.0
2015-Jul-30 01:33N 58°26' E 005°59'0 0.0
2015-Jul-30 00:33N 58°26' E 005°59'0 0.0
2015-Jul-29 23:33N 58°26' E 005°59'1 0.8
2015-Jul-29 22:33N 58°26' E 005°59'1313.0
2015-Jul-29 21:33N 58°13' E 006°03'16313.1
2015-Jul-29 09:09N 55°31' E 006°39'813.0
2015-Jul-29 08:33N 55°23' E 006°41'1312.7
2015-Jul-29 07:33N 55°11' E 006°44'1212.1
2015-Jul-29 06:33N 54°60' E 006°51'1212.2
2015-Jul-29 05:33N 54°49' E 007°01'1212.1
2015-Jul-29 04:33N 54°38' E 007°11'1212.4
2015-Jul-29 03:34N 54°27' E 007°21'1312.7
2015-Jul-29 02:33N 54°17' E 007°33'1313.2
2015-Jul-29 01:33N 54°07' E 007°49'1313.2
2015-Jul-29 00:33N 54°01' E 008°09'1413.9
2015-Jul-28 23:33N 53°58' E 008°32'1212.3
2015-Jul-28 22:33N 53°51' E 008°48'1111.1
2015-Jul-28 21:34N 53°53' E 009°07'1010.2
2015-Jul-28 20:33N 53°49' E 009°22'1110.7
2015-Jul-28 19:34N 53°39' E 009°31'1010.4
2015-Jul-28 18:33N 53°34' E 009°46'6 5.6
2015-Jul-28 17:33N 53°32' E 009°55'0 0.0
2015-Jul-28 16:33N 53°32' E 009°55'0 0.0
2015-Jul-28 15:33N 53°32' E 009°55'0 0.0
2015-Jul-28 14:33N 53°32' E 009°55'0 0.0
2015-Jul-28 13:33N 53°32' E 009°55'0 0.0
2015-Jul-28 12:33N 53°32' E 009°55'0 0.0
2015-Jul-28 11:33N 53°32' E 009°55'0 0.0
2015-Jul-28 10:33N 53°32' E 009°55'0 0.0
2015-Jul-28 09:33N 53°32' E 009°55'0 0.0
2015-Jul-28 08:33N 53°32' E 009°55'0 0.0
2015-Jul-28 07:33N 53°32' E 009°55'0 0.0
2015-Jul-28 06:33N 53°32' E 009°55'2 1.9
2015-Jul-28 05:33N 53°31' E 009°56'0 0.0
2015-Jul-28 04:33N 53°31' E 009°56'0 0.0
2015-Jul-28 03:33N 53°31' E 009°56'0 0.0
2015-Jul-28 02:33N 53°31' E 009°56'0 0.0
2015-Jul-28 01:33N 53°31' E 009°56'0 0.0
2015-Jul-28 00:33N 53°31' E 009°56'0 0.0
2015-Jul-27 23:33N 53°31' E 009°56'0 0.0
2015-Jul-27 22:33N 53°31' E 009°56'0 0.0
2015-Jul-27 21:33N 53°31' E 009°56'1 0.9
2015-Jul-27 20:33N 53°32' E 009°56'7 6.8
2015-Jul-27 19:33N 53°34' E 009°45'1111.2
2015-Jul-27 18:33N 53°40' E 009°30'1211.8
2015-Jul-27 17:33N 53°50' E 009°20'1211.7
2015-Jul-27 16:33N 53°51' E 009°00'1010.5
2015-Jul-27 15:33N 53°53' E 008°43'1110.5
2015-Jul-27 14:33N 53°59' E 008°28'1212.1
2015-Jul-27 13:33N 53°59' E 008°07'1212.0
2015-Jul-27 12:33N 54°05' E 007°49'1211.8
2015-Jul-27 11:33N 54°11' E 007°32'1211.4
2015-Jul-27 10:33N 54°21' E 007°23'1111.2
2015-Jul-27 09:33N 54°31' E 007°15'1111.2
2015-Jul-27 08:33N 54°41' E 007°06'1111.3
2015-Jul-27 07:33N 54°51' E 006°58'1111.2
2015-Jul-27 06:33N 55°01' E 006°49'1111.1
2015-Jul-27 05:33N 55°12' E 006°43'1111.4
2015-Jul-27 04:33N 55°23' E 006°38'20011.0
2015-Jul-26 10:28N 58°39' E 005°26'1112.4
2015-Jul-26 09:33N 58°50' E 005°27'1313.0
2015-Jul-26 08:33N 59°03' E 005°32'1312.6
2015-Jul-26 07:33N 59°14' E 005°41'1312.7
2015-Jul-26 06:33N 59°22' E 006°01'  

Dump ship's entire track history